Portada
METAR-TAF:

METAR-TAF

Aeropuertos :

Harare, Zimbabue

Aeropuerto Internacional de Harare

latitud: 17-55S, longitud: 031-08E, altitud: 1479 m

Observación

El informe se hizo hace 29 minutos, a las 19:00 UTC
Viento 5 kt del noreste
Temperatura 17°C
Humedad 39%
Presión 1020 hPa
Visibilidad 10 km o más
sin nubes por debajo de 1500 m y sin presencia de cumulonimbus.

METAR: FVHA 171900Z 05005KT CAVOK 17/03 Q1020 NOSIG

Hora: 21:29 (19:29 UTC)

Pronóstico

El informe se hizo hace 3 horas y 29 minutos, a las 16:00 UTC
Pronóstico válido del 17 a las 18 UTC al 18 a las 24 UTC
Viento 9 kt del oeste-suroeste
Visibilidad 10 km o más
sin nubes por debajo de 1500 m y sin presencia de cumulonimbus.

TAF: FVHA 171600Z 1718/1824 24009KT CAVOK

Observaciones y pronósticos meteorológicos de más de 4000 aeropuertos (mensajes METAR y TAF).

Los puntos amarillos y rojos representan las estaciones disponibles.

Ponga el ratón en el punto deseado para ver el nombre de la estación.

Haga clic para ver las observaciones y los pronósticos meteorológicos.

Para cambiar el mapa : haga clic en los botones verdes con una cruz de color negro para hacer un zoom, en el botón verde con un guión para alejar o en las flechas verdes para mapas adyacentes.


METAR-TAF: